Terminal Aerodrome Forecast
Issued by NWS Sterling, VA

Home | Current Version | Previous Version | Text Only | Print | Product List | Glossary On
Versions: 1 2 3 4 5 6 7 8 9 10 11 12 13 14 15
310
FTUS41 KLWX 171141
TAFCHO
TAF
KCHO 171141Z 1712/1812 VRB03KT P6SM FEW200
     FM171900 VRB04KT P6SM BKN110
     FM180600 00000KT P6SM BKN060=

USA.gov is the U.S. government's official web portal to all federal, state and local government web resources and services.